Time;durP1;ratioP1;P1;durP2;ratioP2;P2;SDS_P1;SDS_P2;PMS_P1;PMS_P2;Temp;Humidity;BMP_temperature;BMP_pressure;BME280_temperature;BME280_humidity;BME280_pressure;Samples;Min_cycle;Max_cycle;Signal;HPM_P1;HPM_P2
2022/10/19 00:01:45;;;;;;;16.17;2.88;;;9.40;99.90;;;;;;5053840;28;20502;-28
2022/10/19 00:04:11;;;;;;;12.82;2.05;;;9.50;99.90;;;;;;5053944;28;20041;-28
2022/10/19 00:06:37;;;;;;;11.57;2.65;;;9.40;99.90;;;;;;5052819;28;20179;-27
2022/10/19 00:09:10;;;;;;;5.82;1.90;;;9.40;99.90;;;;;;5053776;28;20166;-27
2022/10/19 00:11:39;;;;;;;7.47;1.65;;;9.40;99.90;;;;;;5053612;28;20045;-28
2022/10/19 00:14:05;;;;;;;11.25;2.30;;;9.40;99.90;;;;;;5052687;28;20049;-28
2022/10/19 00:16:34;;;;;;;12.80;2.20;;;9.30;99.90;;;;;;5036071;28;20045;-27
2022/10/19 00:19:06;;;;;;;7.65;1.98;;;9.30;99.90;;;;;;5053449;28;20044;-27
2022/10/19 00:21:32;;;;;;;3.17;1.47;;;9.40;99.90;;;;;;5052450;28;20136;-28
2022/10/19 00:23:58;;;;;;;9.45;2.00;;;9.40;99.90;;;;;;5054075;28;20127;-28
2022/10/19 00:26:24;;;;;;;7.85;1.92;;;9.40;99.90;;;;;;5053603;28;20100;-27
2022/10/19 00:28:52;;;;;;;7.70;1.65;;;9.40;99.90;;;;;;5053248;28;20044;-28
2022/10/19 00:31:18;;;;;;;8.13;1.90;;;9.40;99.90;;;;;;5053134;28;20495;-27
2022/10/19 00:33:45;;;;;;;11.95;2.00;;;9.40;99.90;;;;;;5053411;28;20077;-27
2022/10/19 00:36:26;;;;;;;12.68;2.55;;;9.40;99.90;;;;;;5053450;28;20049;-28
2022/10/19 00:38:53;;;;;;;11.60;1.98;;;9.40;99.90;;;;;;5052211;28;20120;-28
2022/10/19 00:41:21;;;;;;;12.68;2.78;;;9.50;99.90;;;;;;5053395;28;20148;-28
2022/10/19 00:44:00;;;;;;;39.13;3.10;;;9.50;99.90;;;;;;5053060;28;20399;-28
2022/10/19 00:46:29;;;;;;;16.98;2.20;;;9.50;99.90;;;;;;5053345;28;20052;-28
2022/10/19 00:49:01;;;;;;;8.85;2.55;;;9.50;99.90;;;;;;5035464;28;20075;-27
2022/10/19 00:51:27;;;;;;;6.63;2.10;;;9.60;99.90;;;;;;5054189;28;20048;-28
2022/10/19 00:53:55;;;;;;;12.63;2.10;;;9.60;99.90;;;;;;5054039;28;20052;-27
2022/10/19 00:56:20;;;;;;;8.77;1.65;;;9.50;99.90;;;;;;5053247;28;20111;-28
2022/10/19 00:58:46;;;;;;;10.35;1.83;;;9.50;99.90;;;;;;5051943;28;20395;-28
2022/10/19 01:01:19;;;;;;;12.02;3.25;;;9.60;99.90;;;;;;5053174;28;20045;-28
2022/10/19 01:03:45;;;;;;;10.27;1.75;;;9.60;99.90;;;;;;5054117;28;20052;-28
2022/10/19 01:06:13;;;;;;;7.75;1.15;;;9.70;99.90;;;;;;5053525;28;20571;-28
2022/10/19 01:08:39;;;;;;;8.82;1.17;;;9.70;99.90;;;;;;5053784;28;20052;-29
2022/10/19 01:11:22;;;;;;;9.93;1.17;;;9.70;99.90;;;;;;5053143;28;20049;-28
2022/10/19 01:14:18;;;;;;;12.70;1.35;;;9.90;99.90;;;;;;5053251;28;20052;-28
2022/10/19 01:17:05;;;;;;;4.75;0.98;;;9.90;99.90;;;;;;5056595;28;20059;-28
2022/10/19 01:20:04;;;;;;;9.52;1.50;;;10.00;99.90;;;;;;5056909;28;20132;-28
2022/10/19 01:22:41;;;;;;;5.88;0.90;;;10.00;99.90;;;;;;5057195;28;20091;-28
2022/10/19 01:25:40;;;;;;;5.25;0.80;;;10.10;99.90;;;;;;5056833;28;20045;-28
2022/10/19 01:28:22;;;;;;;7.35;0.77;;;10.10;99.90;;;;;;5057339;28;20045;-28
2022/10/19 01:30:54;;;;;;;7.07;0.85;;;10.10;99.90;;;;;;5057069;28;20045;-28
2022/10/19 01:33:46;;;;;;;6.63;1.70;;;10.10;99.90;;;;;;5056757;28;20051;-28
2022/10/19 01:36:27;;;;;;;14.20;1.10;;;10.10;99.90;;;;;;5056145;28;20052;-28
2022/10/19 01:39:04;;;;;;;7.47;0.98;;;10.20;99.90;;;;;;5057392;28;20041;-28
2022/10/19 01:41:35;;;;;;;4.97;0.80;;;10.20;99.90;;;;;;5057079;28;20368;-28
2022/10/19 01:44:17;;;;;;;8.35;0.88;;;10.20;99.90;;;;;;5056591;28;20136;-28
2022/10/19 01:46:48;;;;;;;13.65;1.83;;;10.20;99.90;;;;;;5057320;28;20422;-28
2022/10/19 01:49:45;;;;;;;5.82;1.02;;;10.20;99.90;;;;;;5056468;28;20037;-28
2022/10/19 01:52:15;;;;;;;5.68;0.52;;;10.20;99.90;;;;;;5056942;28;20045;-28
2022/10/19 01:54:48;;;;;;;7.25;0.80;;;10.20;99.90;;;;;;5056355;28;20053;-28
2022/10/19 01:57:20;;;;;;;12.85;0.82;;;10.20;99.90;;;;;;5038683;28;20140;-28
2022/10/19 01:59:48;;;;;;;6.07;0.60;;;10.20;99.90;;;;;;5056096;28;20549;-28
2022/10/19 02:02:15;;;;;;;6.18;0.80;;;10.20;99.90;;;;;;5055179;28;20276;-28
2022/10/19 02:04:42;;;;;;;8.20;0.70;;;10.20;99.90;;;;;;5056926;28;20044;-28
2022/10/19 02:07:09;;;;;;;18.52;1.13;;;10.20;99.90;;;;;;5055094;28;20040;-28
2022/10/19 02:09:35;;;;;;;12.13;1.42;;;10.30;99.90;;;;;;5055998;28;20048;-28
2022/10/19 02:12:07;;;;;;;7.07;1.00;;;10.30;99.90;;;;;;5055932;28;20123;-28
2022/10/19 02:14:38;;;;;;;10.80;1.00;;;10.30;99.90;;;;;;5055918;28;20510;-28
2022/10/19 02:17:12;;;;;;;7.38;1.27;;;10.30;99.90;;;;;;5055900;28;20060;-28
2022/10/19 02:19:38;;;;;;;10.00;0.98;;;10.30;99.90;;;;;;5054657;28;20044;-28
2022/10/19 02:22:04;;;;;;;8.98;0.77;;;10.30;99.90;;;;;;5055760;28;20045;-28
2022/10/19 02:24:30;;;;;;;8.55;1.15;;;10.30;99.90;;;;;;5055733;28;20406;-28
2022/10/19 02:26:56;;;;;;;7.32;1.02;;;10.30;99.90;;;;;;5056187;28;20134;-28
2022/10/19 02:29:21;;;;;;;10.60;1.33;;;10.30;99.90;;;;;;5055644;28;20040;-29
2022/10/19 02:31:48;;;;;;;8.88;2.42;;;10.20;99.90;;;;;;5055595;28;20568;-29
2022/10/19 02:34:13;;;;;;;12.13;1.23;;;10.20;99.90;;;;;;5056132;28;20048;-28
2022/10/19 02:36:40;;;;;;;11.75;1.67;;;10.10;99.90;;;;;;5055771;28;20119;-28
2022/10/19 02:39:06;;;;;;;12.10;1.33;;;10.10;99.90;;;;;;5055971;28;20150;-28
2022/10/19 02:41:38;;;;;;;13.15;1.90;;;10.00;99.90;;;;;;5056235;28;20060;-28
2022/10/19 02:44:21;;;;;;;14.85;1.30;;;10.00;99.90;;;;;;5055353;28;20127;-28
2022/10/19 02:46:50;;;;;;;;;;;9.90;99.90;;;;;;5055468;28;20045;-27
2022/10/19 02:49:17;;;;;;;9.15;1.40;;;9.90;99.90;;;;;;5054911;28;19956;-29
2022/10/19 02:52:00;;;;;;;12.20;1.40;;;9.90;99.90;;;;;;5054908;28;20487;-28
2022/10/19 02:54:27;;;;;;;13.27;2.08;;;9.90;99.90;;;;;;5053950;28;20053;-28
2022/10/19 02:56:52;;;;;;;11.02;1.17;;;9.90;99.90;;;;;;5055115;28;20045;-27
2022/10/19 02:59:18;;;;;;;11.30;1.50;;;9.90;99.90;;;;;;5055557;28;20107;-28
2022/10/19 03:01:44;;;;;;;12.65;1.10;;;10.00;99.90;;;;;;5054060;28;20041;-27
2022/10/19 03:04:10;;;;;;;8.68;1.42;;;9.90;99.90;;;;;;5055823;28;20044;-27
2022/10/19 03:06:35;;;;;;;12.93;2.15;;;9.90;99.90;;;;;;5055790;28;20593;-27
2022/10/19 03:09:02;;;;;;;19.25;1.70;;;9.80;99.90;;;;;;5054846;28;20495;-28
2022/10/19 03:11:27;;;;;;;10.93;1.13;;;9.80;99.90;;;;;;5054828;28;20076;-28
2022/10/19 03:13:53;;;;;;;20.77;2.25;;;9.70;99.90;;;;;;5055061;28;20045;-28
2022/10/19 03:16:19;;;;;;;11.70;1.35;;;9.60;99.90;;;;;;5054724;28;20132;-28
2022/10/19 03:18:47;;;;;;;17.70;1.85;;;9.50;99.90;;;;;;5055162;28;20148;-28
2022/10/19 03:21:13;;;;;;;13.20;1.45;;;9.50;99.90;;;;;;5037132;28;20056;-28
2022/10/19 03:23:39;;;;;;;16.10;1.58;;;9.50;99.90;;;;;;5054456;28;20446;-28
2022/10/19 03:26:06;;;;;;;17.30;1.80;;;9.50;99.90;;;;;;5054391;28;20060;-28
2022/10/19 03:28:32;;;;;;;14.48;1.73;;;9.50;99.90;;;;;;5055348;28;20045;-28
2022/10/19 03:30:58;;;;;;;11.98;1.33;;;9.50;99.90;;;;;;5055316;28;20515;-28
2022/10/19 03:33:24;;;;;;;17.15;1.50;;;9.50;99.90;;;;;;5054679;28;20494;-28
2022/10/19 03:35:50;;;;;;;11.43;1.23;;;9.60;99.90;;;;;;5054455;28;20483;-28
2022/10/19 03:38:16;;;;;;;10.07;1.25;;;9.60;99.90;;;;;;5053583;28;20143;-28
2022/10/19 03:40:42;;;;;;;14.60;1.92;;;9.80;99.90;;;;;;5054828;28;20041;-28
2022/10/19 03:43:08;;;;;;;11.25;1.70;;;9.80;99.90;;;;;;5053081;28;20128;-28
2022/10/19 03:45:33;;;;;;;17.83;1.38;;;9.90;99.90;;;;;;5054191;28;20395;-28
2022/10/19 03:47:59;;;;;;;11.73;1.75;;;9.90;99.90;;;;;;5054215;28;20044;-28
2022/10/19 03:50:25;;;;;;;11.10;1.90;;;10.00;99.90;;;;;;5054949;28;20106;-28
2022/10/19 03:52:50;;;;;;;15.27;1.55;;;10.00;99.90;;;;;;5052615;28;20406;-28
2022/10/19 03:55:16;;;;;;;14.88;1.45;;;10.00;99.90;;;;;;5054333;28;20060;-28
2022/10/19 03:57:42;;;;;;;16.02;1.83;;;10.00;99.90;;;;;;5053893;28;20045;-28
2022/10/19 04:00:09;;;;;;;18.30;1.63;;;10.00;99.90;;;;;;5052910;28;20059;-29
2022/10/19 04:02:35;;;;;;;14.63;1.88;;;9.90;99.90;;;;;;5054145;28;20506;-28
2022/10/19 04:05:00;;;;;;;16.27;1.73;;;9.90;99.90;;;;;;5052952;28;20053;-27
2022/10/19 04:07:26;;;;;;;19.17;1.70;;;9.80;99.90;;;;;;5053167;28;20047;-28
2022/10/19 04:09:52;;;;;;;19.95;2.67;;;9.70;99.90;;;;;;5053486;28;20041;-28
2022/10/19 04:12:17;;;;;;;14.93;1.38;;;9.70;99.90;;;;;;5053179;28;20037;-28
2022/10/19 04:14:43;;;;;;;14.43;1.55;;;9.70;99.90;;;;;;5053157;28;20053;-29
2022/10/19 04:17:10;;;;;;;19.88;3.08;;;9.70;99.90;;;;;;5053965;28;20402;-28
2022/10/19 04:19:35;;;;;;;16.00;1.85;;;9.60;99.90;;;;;;5053234;28;20037;-27
2022/10/19 04:22:01;;;;;;;16.75;1.52;;;9.50;99.90;;;;;;5053627;28;20056;-28
2022/10/19 04:24:27;;;;;;;10.68;1.70;;;9.60;99.90;;;;;;5053613;28;20086;-28
2022/10/19 04:26:54;;;;;;;28.50;2.78;;;9.50;99.90;;;;;;5052092;28;20507;-28
2022/10/19 04:29:23;;;;;;;18.67;2.22;;;9.50;99.90;;;;;;5053602;28;20080;-28
2022/10/19 04:31:50;;;;;;;11.88;1.45;;;9.50;99.90;;;;;;5035434;28;20549;-28
2022/10/19 04:34:16;;;;;;;11.60;1.48;;;9.60;99.90;;;;;;5053519;28;20407;-28
2022/10/19 04:36:42;;;;;;;18.20;1.40;;;9.60;99.90;;;;;;5053520;28;20045;-28
2022/10/19 04:39:07;;;;;;;16.67;1.67;;;9.60;99.90;;;;;;5053456;28;20391;-28
2022/10/19 04:41:34;;;;;;;15.35;1.88;;;9.60;99.90;;;;;;5053494;28;20049;-28
2022/10/19 04:44:02;;;;;;;11.88;1.50;;;9.60;99.90;;;;;;5053435;28;20081;-28
2022/10/19 04:46:28;;;;;;;16.50;1.80;;;9.70;99.90;;;;;;5053440;28;20124;-29
2022/10/19 04:48:55;;;;;;;15.05;1.75;;;9.60;99.90;;;;;;5053393;28;20076;-28
2022/10/19 04:51:22;;;;;;;9.27;1.20;;;9.70;99.90;;;;;;5056554;28;20045;-29
2022/10/19 04:53:48;;;;;;;14.65;1.77;;;9.70;99.90;;;;;;5057265;28;20065;-27
2022/10/19 04:56:20;;;;;;;9.13;1.45;;;9.70;99.90;;;;;;5057105;28;20452;-27
2022/10/19 04:58:46;;;;;;;15.80;1.65;;;9.80;99.90;;;;;;5058102;28;20385;-29
2022/10/19 05:01:16;;;;;;;11.93;1.60;;;9.80;99.90;;;;;;5057271;28;20045;-28
2022/10/19 05:03:42;;;;;;;17.38;2.40;;;9.80;99.90;;;;;;5057593;28;20048;-28
2022/10/19 05:06:10;;;;;;;16.75;1.70;;;9.90;99.90;;;;;;5057234;28;20060;-28
2022/10/19 05:08:37;;;;;;;12.63;2.55;;;9.90;99.90;;;;;;5056081;28;20072;-28
2022/10/19 05:11:09;;;;;;;19.77;2.15;;;9.90;99.90;;;;;;5057137;28;20053;-27
2022/10/19 05:13:35;;;;;;;10.15;0.93;;;9.90;99.90;;;;;;5056443;28;20502;-28
2022/10/19 05:16:03;;;;;;;19.23;2.22;;;10.00;99.90;;;;;;5057084;28;20080;-27
2022/10/19 05:18:29;;;;;;;10.07;1.40;;;10.00;99.90;;;;;;5057458;28;20041;-28
2022/10/19 05:21:11;;;;;;;11.88;1.42;;;10.00;99.90;;;;;;5056885;28;20060;-27
2022/10/19 05:23:37;;;;;;;8.88;1.25;;;10.00;99.90;;;;;;5056907;28;20175;-28
2022/10/19 05:26:06;;;;;;;16.25;2.22;;;10.00;99.90;;;;;;5056851;28;20080;-28
2022/10/19 05:28:33;;;;;;;17.08;2.30;;;10.00;99.90;;;;;;5056773;28;20076;-28
2022/10/19 05:31:13;;;;;;;15.77;1.77;;;10.00;99.90;;;;;;5039320;28;20061;-28
2022/10/19 05:33:40;;;;;;;12.13;1.35;;;10.00;99.90;;;;;;5057564;28;20063;-28
2022/10/19 05:36:33;;;;;;;18.48;1.80;;;10.00;99.90;;;;;;5056672;28;20482;-28
2022/10/19 05:39:01;;;;;;;11.45;1.35;;;10.00;99.90;;;;;;5056907;28;20076;-28
2022/10/19 05:41:27;;;;;;;17.88;1.42;;;10.00;99.90;;;;;;5056874;28;20045;-28
2022/10/19 05:43:58;;;;;;;17.42;1.90;;;10.00;99.90;;;;;;5056820;28;20494;-28
2022/10/19 05:46:26;;;;;;;15.23;2.03;;;10.00;99.90;;;;;;5056508;28;20417;-28
2022/10/19 05:48:53;;;;;;;10.15;1.60;;;10.00;99.90;;;;;;5056448;28;20041;-27
2022/10/19 05:51:20;;;;;;;11.13;1.95;;;10.10;99.90;;;;;;5056366;28;20056;-27
2022/10/19 05:53:46;;;;;;;11.60;1.63;;;10.00;99.90;;;;;;5056357;28;20049;-27
2022/10/19 05:56:14;;;;;;;15.85;1.77;;;10.00;99.90;;;;;;5056329;28;20052;-28
2022/10/19 05:58:40;;;;;;;11.15;1.98;;;10.00;99.90;;;;;;5055907;28;20387;-28
2022/10/19 06:01:08;;;;;;;10.45;1.38;;;9.90;99.90;;;;;;5055490;28;20049;-29
2022/10/19 06:03:34;;;;;;;21.73;3.83;;;9.90;99.90;;;;;;5056149;28;20049;-28
2022/10/19 06:06:05;;;;;;;11.40;1.40;;;9.90;99.90;;;;;;5038402;28;20049;-28
2022/10/19 06:08:31;;;;;;;12.18;1.40;;;9.90;99.90;;;;;;5056696;28;20081;-28
2022/10/19 06:11:08;;;;;;;11.77;1.80;;;9.90;99.90;;;;;;5055877;28;20092;-28
2022/10/19 06:13:34;;;;;;;15.38;1.60;;;9.90;99.90;;;;;;5054883;28;20088;-28
2022/10/19 06:16:00;;;;;;;17.95;4.20;;;9.90;99.90;;;;;;5054883;28;20445;-28
2022/10/19 06:18:26;;;;;;;14.88;2.58;;;9.90;99.90;;;;;;5055675;28;20040;-28
2022/10/19 06:20:55;;;;;;;12.60;1.50;;;9.80;99.90;;;;;;5055393;28;20052;-28
2022/10/19 06:23:21;;;;;;;16.77;1.50;;;9.90;99.90;;;;;;5037953;28;20127;-28
2022/10/19 06:25:46;;;;;;;14.23;1.55;;;9.90;99.90;;;;;;5055730;28;20140;-28
2022/10/19 06:28:12;;;;;;;12.63;1.33;;;10.00;99.90;;;;;;5055755;28;20052;-28
2022/10/19 06:30:39;;;;;;;14.25;2.00;;;10.00;99.90;;;;;;5055652;28;20131;-28
2022/10/19 06:33:05;;;;;;;8.57;1.98;;;10.00;99.90;;;;;;5055620;28;20045;-29
2022/10/19 06:35:31;;;;;;;22.65;1.58;;;10.10;99.90;;;;;;5056098;28;20049;-28
2022/10/19 06:37:57;;;;;;;19.77;2.70;;;10.10;99.90;;;;;;5055212;28;20075;-27
2022/10/19 06:40:24;;;;;;;8.98;1.10;;;10.10;99.90;;;;;;5055454;28;20055;-28
2022/10/19 06:42:49;;;;;;;20.15;6.43;;;10.20;99.90;;;;;;5054459;28;20045;-28
2022/10/19 06:45:15;;;;;;;8.65;2.00;;;10.20;99.90;;;;;;5054683;28;20045;-28
2022/10/19 06:47:41;;;;;;;12.52;2.15;;;10.30;99.90;;;;;;5054658;28;20106;-28
2022/10/19 06:50:07;;;;;;;14.32;1.65;;;10.30;99.90;;;;;;5055559;28;20376;-28
2022/10/19 06:52:34;;;;;;;14.40;1.60;;;10.30;99.90;;;;;;5037933;28;20053;-27
2022/10/19 06:55:00;;;;;;;31.13;2.22;;;10.30;99.90;;;;;;5055812;28;20131;-28
2022/10/19 06:57:27;;;;;;;15.90;2.15;;;10.30;99.90;;;;;;5055164;28;20399;-28
2022/10/19 06:59:53;;;;;;;13.15;1.58;;;10.40;99.90;;;;;;5054985;28;20155;-29
2022/10/19 07:02:19;;;;;;;14.70;1.65;;;10.40;99.90;;;;;;5055070;28;20057;-28
2022/10/19 07:04:45;;;;;;;16.15;1.30;;;10.60;99.90;;;;;;5054353;28;20064;-28
2022/10/19 07:07:10;;;;;;;14.77;1.30;;;10.60;99.90;;;;;;5055000;28;20052;-28
2022/10/19 07:09:36;;;;;;;11.23;1.25;;;10.60;99.90;;;;;;5038112;28;20045;-28
2022/10/19 07:12:02;;;;;;;14.07;1.80;;;10.80;99.90;;;;;;5054811;28;20048;-28
2022/10/19 07:14:28;;;;;;;10.60;1.30;;;10.80;99.90;;;;;;5036258;28;20056;-28
2022/10/19 07:16:54;;;;;;;8.02;1.15;;;10.80;99.90;;;;;;5053638;28;20041;-28
2022/10/19 07:19:21;;;;;;;15.88;1.70;;;10.90;99.90;;;;;;5054576;28;20040;-28
2022/10/19 07:21:51;;;;;;;34.17;2.90;;;11.00;99.90;;;;;;5055276;28;20127;-28
2022/10/19 07:24:17;;;;;;;13.50;1.13;;;11.00;99.90;;;;;;5054684;28;20048;-28
2022/10/19 07:26:43;;;;;;;8.35;1.67;;;11.10;99.90;;;;;;5054552;28;20070;-28
2022/10/19 07:29:09;;;;;;;11.30;1.58;;;11.20;99.90;;;;;;5036994;28;20114;-28
2022/10/19 07:31:35;;;;;;;12.10;1.63;;;11.30;99.90;;;;;;5053807;28;20049;-28
2022/10/19 07:34:09;;;;;;;20.00;1.98;;;11.30;99.90;;;;;;5148818;27;20573;-28
2022/10/19 07:36:35;;;;;;;13.45;2.20;;;11.40;99.90;;;;;;5132431;27;20051;-28
2022/10/19 07:39:05;;;;;;;7.35;1.20;;;11.50;99.90;;;;;;5132042;27;20473;-28
2022/10/19 07:41:31;;;;;;;9.70;1.55;;;11.50;99.90;;;;;;5131302;28;20050;-28
2022/10/19 07:43:57;;;;;;;6.43;1.10;;;11.50;99.90;;;;;;5131975;27;20043;-28
2022/10/19 07:46:25;;;;;;;15.70;3.00;;;11.60;99.90;;;;;;5113827;28;20091;-28
2022/10/19 07:48:52;;;;;;;15.55;1.50;;;11.60;99.90;;;;;;5113798;28;20070;-28
2022/10/19 07:51:18;;;;;;;18.13;2.22;;;11.60;99.90;;;;;;5131781;27;20539;-29
2022/10/19 07:53:45;;;;;;;10.65;1.42;;;11.80;99.90;;;;;;5130423;28;20450;-28
2022/10/19 07:56:13;;;;;;;8.50;1.55;;;11.70;99.90;;;;;;5131798;27;20509;-29
2022/10/19 07:58:40;;;;;;;13.25;1.60;;;11.80;99.90;;;;;;5132217;27;20122;-28
2022/10/19 08:01:11;;;;;;;13.82;1.45;;;11.80;99.90;;;;;;5130819;28;20047;-29
2022/10/19 08:03:37;;;;;;;14.52;1.88;;;11.90;99.90;;;;;;5131624;27;20079;-28
2022/10/19 08:06:06;;;;;;;9.15;2.00;;;12.00;99.90;;;;;;5131527;27;20126;-28
2022/10/19 08:08:32;;;;;;;17.73;2.15;;;12.00;99.90;;;;;;5130216;28;20362;-28
2022/10/19 08:11:07;;;;;;;11.45;1.85;;;12.00;22.90;;;;;;5131433;27;20052;-28
2022/10/19 08:13:32;;;;;;;8.63;1.48;;;12.10;1.00;;;;;;5114003;28;20377;-28
2022/10/19 08:15:58;;;;;;;16.13;2.33;;;12.20;1.00;;;;;;5131890;27;20039;-28
2022/10/19 08:18:24;;;;;;;8.98;1.38;;;12.20;1.00;;;;;;5131271;27;20196;-28
2022/10/19 08:20:50;;;;;;;12.30;1.38;;;12.30;99.90;;;;;;5132015;27;20059;-28
2022/10/19 08:23:15;;;;;;;15.63;1.98;;;12.30;1.00;;;;;;5130038;28;20389;-29
2022/10/19 08:25:41;;;;;;;9.85;1.45;;;12.40;50.10;;;;;;5131009;28;20042;-28
2022/10/19 08:28:07;;;;;;;8.45;1.20;;;12.50;1.00;;;;;;5131123;27;20136;-28
2022/10/19 08:30:36;;;;;;;7.00;1.15;;;12.50;99.90;;;;;;5131035;27;20074;-28
2022/10/19 08:33:03;;;;;;;11.60;1.58;;;12.60;99.90;;;;;;5131071;27;20132;-29
2022/10/19 08:35:30;;;;;;;7.70;2.03;;;12.70;1.00;;;;;;5130972;27;20058;-28
2022/10/19 08:37:57;;;;;;;11.50;1.90;;;12.70;1.00;;;;;;5130938;27;20051;-28
2022/10/19 08:40:27;;;;;;;15.18;2.08;;;12.70;99.90;;;;;;5130828;27;20083;-30
2022/10/19 08:43:15;;;;;;;9.48;1.10;;;12.80;99.90;;;;;;5130159;28;20047;-29
2022/10/19 08:46:11;;;;;;;11.32;1.63;;;12.90;99.90;;;;;;5115799;28;20051;-28
2022/10/19 08:48:41;;;;;;;6.80;1.17;;;12.90;99.90;;;;;;5111946;28;20056;-29
2022/10/19 08:51:11;;;;;;;8.50;0.93;;;13.00;99.90;;;;;;5116997;28;20047;-28
2022/10/19 08:53:48;;;;;;;11.98;2.05;;;13.00;99.90;;;;;;5117690;28;20031;-28
2022/10/19 08:56:17;;;;;;;7.15;2.22;;;13.10;1.00;;;;;;5110930;28;20048;-28
2022/10/19 08:59:03;;;;;;;10.02;2.17;;;13.10;1.00;;;;;;5116496;28;20043;-28
2022/10/19 09:02:06;;;;;;;10.85;1.85;;;13.20;1.00;;;;;;5117606;28;20055;-28
2022/10/19 09:04:36;;;;;;;38.58;2.60;;;13.20;99.90;;;;;;5117295;28;20047;-28
2022/10/19 09:07:19;;;;;;;12.02;1.40;;;13.30;99.90;;;;;;5116597;28;20123;-28
2022/10/19 09:10:01;;;;;;;12.23;1.20;;;13.30;99.90;;;;;;5116566;28;20120;-28
2022/10/19 09:12:52;;;;;;;11.57;1.75;;;13.30;99.90;;;;;;5116381;28;20042;-29
2022/10/19 09:15:24;;;;;;;11.45;1.58;;;13.40;1.00;;;;;;5117122;28;20057;-29
2022/10/19 09:17:49;;;;;;;8.82;1.48;;;13.50;99.90;;;;;;5116674;28;20040;-29
2022/10/19 09:20:17;;;;;;;10.00;1.30;;;13.60;99.90;;;;;;5116419;28;20496;-28
2022/10/19 09:22:44;;;;;;;8.20;1.35;;;13.80;99.90;;;;;;5116829;28;20048;-28
2022/10/19 09:25:21;;;;;;;14.18;1.50;;;14.00;99.90;;;;;;5115094;28;20077;-28
2022/10/19 09:27:51;;;;;;;10.43;2.70;;;14.20;99.90;;;;;;5116780;28;20048;-28
2022/10/19 09:30:22;;;;;;;7.22;1.40;;;14.40;1.00;;;;;;5099018;28;20051;-28
2022/10/19 09:33:01;;;;;;;9.13;1.27;;;14.40;1.00;;;;;;5116140;28;20060;-29
2022/10/19 09:35:32;;;;;;;9.73;1.95;;;14.40;99.90;;;;;;5116589;28;20401;-28
2022/10/19 09:37:59;;;;;;;10.63;1.50;;;14.40;1.00;;;;;;5116075;28;20055;-28
2022/10/19 09:40:29;;;;;;;9.18;1.92;;;14.30;1.00;;;;;;5116396;28;20044;-28
2022/10/19 09:42:57;;;;;;;15.65;1.48;;;14.30;99.90;;;;;;5116501;28;20067;-28
2022/10/19 09:45:25;;;;;;;9.82;1.30;;;14.40;1.00;;;;;;5116723;28;20043;-28
2022/10/19 09:47:52;;;;;;;10.25;1.40;;;14.40;1.00;;;;;;5115839;28;20050;-29
2022/10/19 09:50:21;;;;;;;15.38;1.35;;;14.30;99.90;;;;;;5115724;28;20081;-28
2022/10/19 09:52:52;;;;;;;6.85;1.25;;;14.30;99.90;;;;;;5115651;28;20393;-28
2022/10/19 09:55:23;;;;;;;9.77;1.30;;;14.30;1.00;;;;;;5114837;28;20087;-28
2022/10/19 09:57:57;;;;;;;8.80;1.23;;;14.30;99.90;;;;;;5116197;28;20044;-28
2022/10/19 10:00:30;;;;;;;9.27;1.13;;;14.30;99.90;;;;;;5115453;28;20503;-29
2022/10/19 10:02:56;;;;;;;8.32;1.10;;;14.40;99.90;;;;;;5114510;28;20043;-28
2022/10/19 10:05:30;;;;;;;10.98;1.52;;;14.30;99.90;;;;;;5115211;28;20044;-28
2022/10/19 10:07:56;;;;;;;12.30;1.67;;;14.40;99.90;;;;;;5115966;28;20134;-28
2022/10/19 10:10:28;;;;;;;11.60;1.58;;;14.30;99.90;;;;;;5116111;28;20123;-29
2022/10/19 10:12:54;;;;;;;8.38;1.70;;;14.30;99.90;;;;;;5115244;28;20374;-28
2022/10/19 10:15:26;;;;;;;16.20;2.55;;;14.30;99.90;;;;;;5114835;28;20248;-28
2022/10/19 10:17:54;;;;;;;10.10;1.87;;;14.20;99.90;;;;;;5114821;28;20505;-28
2022/10/19 10:20:27;;;;;;;10.90;1.85;;;14.30;99.90;;;;;;5115082;28;20039;-28
2022/10/19 10:22:56;;;;;;;;;;;14.40;99.90;;;;;;5102479;28;20032;-28
2022/10/19 10:25:28;;;;;;;8.60;1.23;;;14.40;37.90;;;;;;5107676;28;19966;-28
2022/10/19 10:27:57;;;;;;;9.87;2.10;;;14.50;99.90;;;;;;5093428;28;20131;-28
2022/10/19 10:30:24;;;;;;;17.65;1.58;;;14.50;99.90;;;;;;5094607;28;20139;-28
2022/10/19 10:32:52;;;;;;;10.02;1.40;;;14.50;90.40;;;;;;5094035;28;20056;-28
2022/10/19 10:35:33;;;;;;;16.33;1.50;;;14.50;98.70;;;;;;5094639;28;20134;-28
2022/10/19 10:38:27;;;;;;;10.43;1.30;;;14.50;1.00;;;;;;5094536;28;20519;-28
2022/10/19 10:41:01;;;;;;;14.80;2.17;;;14.50;1.00;;;;;;5094384;28;20482;-28
2022/10/19 10:43:32;;;;;;;10.13;1.20;;;14.50;99.90;;;;;;5094438;28;20032;-28
2022/10/19 10:46:13;;;;;;;11.38;1.13;;;14.60;99.90;;;;;;5094391;28;20549;-30
2022/10/19 10:48:44;;;;;;;12.05;1.50;;;14.60;99.90;;;;;;5094716;28;20047;-28
2022/10/19 10:51:58;;;;;;;6.40;1.20;;;14.60;99.90;;;;;;5094962;28;20154;-29
2022/10/19 10:54:26;;;;;;;16.20;1.30;;;14.70;1.00;;;;;;5093767;28;20134;-28
2022/10/19 10:57:17;;;;;;;6.45;1.30;;;15.00;99.90;;;;;;5094176;28;20059;-28
2022/10/19 10:59:55;;;;;;;10.80;1.67;;;15.30;99.90;;;;;;5093531;28;20083;-28
2022/10/19 11:02:25;;;;;;;10.93;2.42;;;15.50;1.00;;;;;;5094074;28;20044;-29
2022/10/19 11:04:56;;;;;;;17.95;2.00;;;15.70;1.00;;;;;;5094013;28;20044;-29
2022/10/19 11:07:26;;;;;;;10.32;1.35;;;16.00;1.00;;;;;;5094501;28;20091;-28
2022/10/19 11:09:56;;;;;;;7.55;1.60;;;16.80;1.00;;;;;;5094622;28;20392;-29
2022/10/19 11:12:40;;;;;;;7.75;1.23;;;17.80;1.00;;;;;;5094240;28;20040;-28
2022/10/19 11:15:18;;;;;;;9.18;2.45;;;18.30;1.00;;;;;;5092810;28;20044;-28
2022/10/19 11:18:00;;;;;;;7.65;1.75;;;18.50;1.00;;;;;;5092989;28;20051;-28
2022/10/19 11:20:29;;;;;;;10.93;1.37;;;18.00;99.90;;;;;;5093945;28;20044;-28
2022/10/19 11:23:09;;;;;;;10.48;1.65;;;17.60;99.90;;;;;;5094070;28;20089;-29
2022/10/19 11:26:04;;;;;;;6.38;1.08;;;17.10;99.90;;;;;;5092933;28;20044;-29
2022/10/19 11:28:52;;;;;;;8.60;1.20;;;16.80;99.90;;;;;;5093850;28;20097;-29
2022/10/19 11:31:24;;;;;;;11.02;1.70;;;16.70;1.00;;;;;;5094086;28;20478;-29
2022/10/19 11:33:56;;;;;;;6.25;1.67;;;16.40;1.00;;;;;;5094118;28;20056;-28
2022/10/19 11:36:33;;;;;;;12.02;1.65;;;16.00;1.00;;;;;;5094342;28;20040;-29
2022/10/19 11:39:17;;;;;;;13.48;1.20;;;15.70;1.00;;;;;;5093748;28;20397;-28
2022/10/19 11:41:52;;;;;;;7.32;1.02;;;15.50;1.00;;;;;;5094203;28;20090;-28
2022/10/19 11:44:23;;;;;;;10.77;1.30;;;15.40;39.20;;;;;;5092762;28;20040;-28
2022/10/19 11:46:52;;;;;;;8.95;1.13;;;15.40;99.90;;;;;;5092650;28;20040;-28
2022/10/19 11:49:33;;;;;;;11.65;1.83;;;15.50;99.90;;;;;;5094083;28;20484;-28
2022/10/19 11:52:08;;;;;;;9.02;1.85;;;15.60;90.80;;;;;;5093469;28;20040;-28
2022/10/19 11:54:58;;;;;;;8.27;0.93;;;15.60;1.00;;;;;;5094400;28;20374;-29
2022/10/19 11:57:26;;;;;;;8.40;1.10;;;15.60;99.90;;;;;;5093576;28;20052;-28
2022/10/19 12:00:02;;;;;;;7.72;1.30;;;15.40;99.90;;;;;;5093457;28;20088;-28
2022/10/19 12:03:01;;;;;;;12.55;1.42;;;15.40;99.90;;;;;;5076277;28;20432;-29
2022/10/19 12:05:45;;;;;;;13.95;1.65;;;15.40;99.90;;;;;;5093532;28;20040;-28
2022/10/19 12:08:24;;;;;;;14.18;1.45;;;15.40;99.90;;;;;;5094044;28;20060;-28
2022/10/19 12:11:01;;;;;;;13.13;2.65;;;15.40;99.90;;;;;;5093130;28;20514;-28
2022/10/19 12:13:49;;;;;;;12.57;1.83;;;15.60;99.90;;;;;;5093896;28;20061;-29
2022/10/19 12:16:19;;;;;;;6.65;1.23;;;15.60;99.90;;;;;;5093355;28;20083;-28
2022/10/19 12:18:52;;;;;;;6.13;1.40;;;15.50;99.90;;;;;;5094136;28;20086;-28
2022/10/19 12:21:21;;;;;;;;;;;15.40;99.90;;;;;;5098467;28;20044;-28
2022/10/19 12:23:48;;;;;;;7.85;1.25;;;15.30;99.90;;;;;;5097414;28;19920;-28
2022/10/19 12:26:16;;;;;;;8.80;1.38;;;15.60;1.00;;;;;;5097114;28;20044;-29
2022/10/19 12:28:48;;;;;;;6.72;1.20;;;16.00;99.90;;;;;;5097013;28;20040;-28
2022/10/19 12:31:14;;;;;;;8.10;1.23;;;16.20;99.90;;;;;;5097346;28;20123;-29
2022/10/19 12:33:57;;;;;;;7.90;1.42;;;16.40;99.90;;;;;;5097102;28;20066;-29
2022/10/19 12:36:30;;;;;;;8.18;1.13;;;16.60;88.80;;;;;;5096948;28;20051;-28
2022/10/19 12:39:42;;;;;;;13.55;2.92;;;16.40;1.00;;;;;;5096873;28;20052;-28
2022/10/19 12:42:21;;;;;;;14.15;4.47;;;16.20;99.90;;;;;;5095670;28;20421;-29
2022/10/19 12:45:23;;;;;;;6.88;1.30;;;15.80;1.00;;;;;;5106169;28;20047;-28
2022/10/19 12:48:07;;;;;;;5.88;1.17;;;15.60;1.00;;;;;;5117178;28;20035;-28
2022/10/19 12:50:48;;;;;;;10.07;1.27;;;15.90;99.90;;;;;;5117011;28;20393;-28
2022/10/19 12:53:24;;;;;;;7.70;1.05;;;16.80;99.90;;;;;;5116873;28;20054;-28
2022/10/19 12:56:07;;;;;;;8.05;1.48;;;17.60;1.00;;;;;;5116952;28;20047;-28
2022/10/19 12:58:58;;;;;;;6.65;1.65;;;18.30;1.00;;;;;;5117139;28;20147;-28
2022/10/19 13:01:33;;;;;;;5.85;1.38;;;18.60;99.90;;;;;;5115660;28;20127;-28
2022/10/19 13:04:14;;;;;;;6.78;0.93;;;18.10;98.60;;;;;;5116772;28;20062;-29
2022/10/19 13:06:48;;;;;;;6.50;1.52;;;17.40;99.90;;;;;;5116720;28;20501;-29